createdAt,value
2023-04-10T00:00:58.074Z,3.85
2023-04-10T00:11:05.001Z,4.97
2023-04-10T00:21:16.772Z,2.58
2023-04-10T00:31:55.506Z,2.72
2023-04-10T01:17:30.603Z,2.13
2023-04-10T01:40:09.687Z,1.65
2023-04-10T01:50:19.170Z,3.67
2023-04-10T02:00:56.103Z,1.30
2023-04-10T02:11:33.528Z,2.22
2023-04-10T02:21:44.828Z,1.10
2023-04-10T02:31:54.157Z,0.90
2023-04-10T02:53:54.883Z,1.00
2023-04-10T03:28:40.473Z,1.50
2023-04-10T03:39:57.760Z,1.83
2023-04-10T03:51:19.536Z,1.00
2023-04-10T04:01:53.952Z,1.08
2023-04-10T04:12:09.156Z,1.10
2023-04-10T04:22:53.964Z,1.00
2023-04-10T05:20:21.102Z,0.93
2023-04-10T05:30:49.653Z,1.38
2023-04-10T05:41:35.281Z,1.20
2023-04-10T05:51:57.109Z,1.02
2023-04-10T06:02:33.463Z,0.88
2023-04-10T06:12:41.018Z,1.00
2023-04-10T06:22:52.110Z,0.90
2023-04-10T06:32:59.599Z,1.60
2023-04-10T06:43:09.667Z,1.48
2023-04-10T06:53:19.428Z,2.35
2023-04-10T07:03:54.695Z,1.13
2023-04-10T07:15:22.616Z,2.63
2023-04-10T07:25:46.189Z,0.90
2023-04-10T07:36:03.663Z,1.05
2023-04-10T07:46:14.802Z,0.82
2023-04-10T07:56:26.403Z,0.82
2023-04-10T08:07:37.934Z,1.48
2023-04-10T08:29:37.551Z,0.70
2023-04-10T08:40:31.594Z,0.85
2023-04-10T09:02:22.983Z,0.80
2023-04-10T09:13:14.915Z,0.73
2023-04-10T09:24:17.576Z,0.80
2023-04-10T09:35:13.391Z,0.73
2023-04-10T10:09:14.879Z,0.90
2023-04-10T10:19:50.748Z,1.05
2023-04-10T10:30:08.467Z,1.17
2023-04-10T10:41:04.336Z,1.23
2023-04-10T11:02:58.197Z,2.05
2023-04-10T11:25:17.303Z,1.35
2023-04-10T11:35:48.890Z,1.70
2023-04-10T11:46:14.228Z,1.60
2023-04-10T11:56:44.692Z,1.25
2023-04-10T12:07:09.221Z,1.13
2023-04-10T12:17:49.485Z,0.98
2023-04-10T12:28:00.485Z,1.20
2023-04-10T12:38:12.241Z,0.80
2023-04-10T12:48:27.997Z,1.10
2023-04-10T12:59:12.394Z,1.80
2023-04-10T13:09:20.636Z,0.90
2023-04-10T13:19:47.270Z,1.33
2023-04-10T13:30:00.385Z,1.67
2023-04-10T13:40:10.855Z,1.55
2023-04-10T13:50:18.767Z,1.17
2023-04-10T14:11:40.341Z,1.23
2023-04-10T14:21:57.739Z,1.20
2023-04-10T14:32:05.176Z,1.25
2023-04-10T14:42:30.975Z,1.48
2023-04-10T14:52:51.994Z,1.33
2023-04-10T15:03:03.431Z,1.63
2023-04-10T15:13:16.431Z,1.73
2023-04-10T15:23:30.627Z,2.00
2023-04-10T15:33:40.189Z,2.38
2023-04-10T16:06:47.211Z,1.25
2023-04-10T16:17:09.051Z,0.98
2023-04-10T16:27:31.148Z,1.13
2023-04-10T16:37:40.814Z,1.23
2023-04-10T16:47:47.786Z,1.35
2023-04-10T16:57:58.710Z,1.95
2023-04-10T17:08:08.894Z,3.70
2023-04-10T17:18:24.355Z,3.70
2023-04-10T17:28:34.957Z,3.65
2023-04-10T17:38:45.120Z,2.60
2023-04-10T17:49:17.105Z,2.85
2023-04-10T18:00:01.528Z,2.45
2023-04-10T18:22:42.888Z,1.75
2023-04-10T18:32:56.092Z,1.77
2023-04-10T18:43:04.848Z,2.83
2023-04-10T18:53:11.811Z,2.67
2023-04-10T19:03:21.582Z,2.38
2023-04-10T19:13:32.146Z,1.70
2023-04-10T19:23:40.724Z,2.75
2023-04-10T19:33:47.550Z,1.92
2023-04-10T19:43:56.561Z,1.33
2023-04-10T20:05:38.709Z,2.08
2023-04-10T20:15:46.023Z,2.60
2023-04-10T20:25:54.520Z,3.83
2023-04-10T20:36:03.679Z,2.40
2023-04-10T20:46:12.206Z,1.95
2023-04-10T20:56:19.976Z,2.50
2023-04-10T21:06:30.259Z,1.52
2023-04-10T21:16:42.059Z,1.80
2023-04-10T21:27:43.587Z,2.42
2023-04-10T21:38:08.172Z,1.30
2023-04-10T21:48:15.112Z,1.67
2023-04-10T22:10:26.305Z,1.75
2023-04-10T22:43:48.194Z,2.03
2023-04-10T22:54:00.634Z,2.03
2023-04-10T23:04:24.419Z,2.65
2023-04-10T23:14:31.987Z,1.50
2023-04-10T23:24:41.304Z,1.60
2023-04-10T23:34:48.094Z,2.08
2023-04-10T23:44:56.636Z,1.23
2023-04-10T23:55:06.950Z,1.98
